Time;durP1;ratioP1;P1;durP2;ratioP2;P2;SDS_P1;SDS_P2;PMS_P1;PMS_P2;Temp;Humidity;BMP_temperature;BMP_pressure;BME280_temperature;BME280_humidity;BME280_pressure;Samples;Min_cycle;Max_cycle;Signal;HPM_P1;HPM_P2
2024/04/17 00:02:09;;;;;;;0.40;0.40;;;6.60;99.90;;;;;;5483306;26;20516;-81
2024/04/17 00:04:37;;;;;;;1.57;0.60;;;6.50;99.90;;;;;;5483577;26;20444;-81
2024/04/17 00:07:03;;;;;;;0.50;0.40;;;6.60;99.90;;;;;;5483023;26;20310;-81
2024/04/17 00:09:31;;;;;;;0.40;0.40;;;6.60;99.90;;;;;;5482940;26;20444;-81
2024/04/17 00:11:57;;;;;;;0.40;0.33;;;6.70;99.90;;;;;;5483008;26;20560;-81
2024/04/17 00:14:28;;;;;;;0.40;0.40;;;6.70;99.90;;;;;;5483055;26;20460;-81
2024/04/17 00:16:54;;;;;;;0.40;0.40;;;6.60;99.90;;;;;;5482811;26;20222;-80
2024/04/17 00:19:22;;;;;;;0.40;0.40;;;6.70;99.90;;;;;;5482809;26;20902;-80
2024/04/17 00:21:48;;;;;;;0.40;0.40;;;6.70;99.90;;;;;;5482946;26;20266;-80
2024/04/17 00:24:16;;;;;;;0.50;0.50;;;6.70;99.90;;;;;;5486951;26;20560;-80
2024/04/17 00:26:42;;;;;;;0.40;0.40;;;6.70;99.90;;;;;;5485973;26;20227;-80
2024/04/17 00:29:10;;;;;;;0.43;0.43;;;6.70;99.90;;;;;;5486183;26;20491;-80
2024/04/17 00:31:39;;;;;;;0.40;0.40;;;6.70;99.90;;;;;;5485856;26;20319;-80
2024/04/17 00:34:07;;;;;;;0.50;0.40;;;6.60;99.90;;;;;;5486945;26;20453;-80
2024/04/17 00:36:34;;;;;;;0.40;0.37;;;6.60;99.90;;;;;;5486312;26;20601;-80
2024/04/17 00:39:03;;;;;;;0.40;0.30;;;6.60;99.90;;;;;;5486081;26;20504;-80
2024/04/17 00:41:29;;;;;;;0.90;0.40;;;6.60;99.90;;;;;;5485864;26;20497;-80
2024/04/17 00:43:57;;;;;;;0.40;0.40;;;6.60;99.90;;;;;;5485906;26;20511;-80
2024/04/17 00:46:23;;;;;;;0.40;0.40;;;6.60;99.90;;;;;;5486316;26;20305;-80
2024/04/17 00:48:54;;;;;;;0.43;0.40;;;6.60;99.90;;;;;;5485798;26;20452;-80
2024/04/17 00:51:20;;;;;;;1.13;0.50;;;6.50;99.90;;;;;;5486651;26;20295;-80
2024/04/17 00:53:49;;;;;;;0.50;0.40;;;6.50;99.90;;;;;;5485152;26;20812;-80
2024/04/17 00:56:14;;;;;;;0.30;0.30;;;6.50;99.90;;;;;;5485175;26;20274;-80
2024/04/17 00:58:43;;;;;;;0.50;0.40;;;6.50;99.90;;;;;;5484763;26;20444;-80
2024/04/17 01:01:09;;;;;;;0.40;0.40;;;6.50;99.90;;;;;;5486546;26;20464;-80
2024/04/17 01:03:37;;;;;;;0.60;0.40;;;6.50;99.90;;;;;;5483768;26;21104;-80
2024/04/17 01:06:06;;;;;;;0.50;0.40;;;6.40;99.90;;;;;;5484093;26;20214;-80
2024/04/17 01:08:34;;;;;;;0.53;0.40;;;6.40;99.90;;;;;;5483497;26;20464;-80
2024/04/17 01:11:01;;;;;;;0.30;0.30;;;6.40;99.90;;;;;;5483504;26;20444;-80
2024/04/17 01:13:29;;;;;;;0.70;0.60;;;6.40;99.90;;;;;;5483227;26;20448;-80
2024/04/17 01:15:56;;;;;;;0.73;0.33;;;6.50;99.90;;;;;;5483891;26;20512;-80
2024/04/17 01:18:25;;;;;;;0.50;0.40;;;6.50;99.90;;;;;;5483250;26;20503;-80
2024/04/17 01:20:51;;;;;;;0.40;0.30;;;6.40;99.90;;;;;;5482076;26;21106;-80
2024/04/17 01:23:21;;;;;;;0.70;0.40;;;6.50;99.90;;;;;;5483092;26;20444;-80
2024/04/17 01:25:50;;;;;;;0.40;0.40;;;6.50;99.90;;;;;;5482721;26;20233;-80
2024/04/17 01:28:18;;;;;;;0.40;0.40;;;6.50;99.90;;;;;;5482554;26;20480;-80
2024/04/17 01:30:44;;;;;;;0.40;0.30;;;6.40;99.90;;;;;;5483073;26;20512;-80
2024/04/17 01:33:12;;;;;;;0.60;0.37;;;6.40;99.90;;;;;;5483322;26;20553;-80
2024/04/17 01:35:38;;;;;;;2.40;0.40;;;6.40;99.90;;;;;;5483281;26;20215;-80
2024/04/17 01:38:07;;;;;;;0.43;0.30;;;6.40;99.90;;;;;;5482771;26;20544;-80
2024/04/17 01:40:32;;;;;;;0.50;0.40;;;6.40;99.90;;;;;;5483225;26;20274;-80
2024/04/17 01:43:03;;;;;;;0.50;0.40;;;6.40;99.90;;;;;;5482669;26;20565;-80
2024/04/17 01:45:29;;;;;;;0.40;0.40;;;6.30;99.90;;;;;;5482803;26;20247;-80
2024/04/17 01:47:57;;;;;;;0.33;0.30;;;6.30;99.90;;;;;;5481960;26;20468;-80
2024/04/17 01:50:28;;;;;;;0.50;0.37;;;6.30;99.90;;;;;;5482727;26;20211;-80
2024/04/17 01:52:56;;;;;;;0.30;0.30;;;6.40;99.90;;;;;;5483350;26;20486;-80
2024/04/17 01:55:22;;;;;;;0.30;0.30;;;6.40;99.90;;;;;;5482523;26;20891;-80
2024/04/17 01:57:50;;;;;;;0.33;0.30;;;6.40;99.90;;;;;;5482959;26;20444;-80
2024/04/17 02:00:19;;;;;;;0.40;0.30;;;6.40;99.90;;;;;;5482418;26;20249;-80
2024/04/17 02:02:47;;;;;;;0.30;0.27;;;6.40;99.90;;;;;;5483129;26;20511;-80
2024/04/17 02:05:13;;;;;;;0.30;0.30;;;6.40;99.90;;;;;;5483401;26;20555;-80
2024/04/17 02:07:41;;;;;;;0.30;0.20;;;6.40;99.90;;;;;;5483616;26;20464;-80
2024/04/17 02:10:07;;;;;;;0.30;0.30;;;6.40;99.90;;;;;;5483374;26;20452;-80
2024/04/17 02:12:36;;;;;;;1.13;0.83;;;6.40;99.90;;;;;;5483330;26;20452;-80
2024/04/17 02:15:01;;;;;;;0.30;0.30;;;6.40;99.90;;;;;;5482938;26;20775;-80
2024/04/17 02:17:32;;;;;;;0.30;0.30;;;6.40;99.90;;;;;;5485072;26;20530;-80
2024/04/17 02:19:58;;;;;;;0.40;0.30;;;6.40;99.90;;;;;;5485316;26;20191;-80
2024/04/17 02:22:26;;;;;;;2.87;0.40;;;6.40;99.90;;;;;;5485106;26;20508;-80
2024/04/17 02:24:52;;;;;;;0.30;0.23;;;6.40;99.90;;;;;;5485712;26;20339;-80
2024/04/17 02:27:20;;;;;;;0.30;0.30;;;6.30;99.90;;;;;;5484500;26;20476;-80
2024/04/17 02:29:47;;;;;;;0.30;0.30;;;6.40;99.90;;;;;;5484095;26;20302;-80
2024/04/17 02:32:16;;;;;;;0.60;0.33;;;6.40;99.90;;;;;;5483376;26;20456;-80
2024/04/17 02:34:44;;;;;;;0.30;0.30;;;6.40;99.90;;;;;;5484174;26;20448;-80
2024/04/17 02:37:12;;;;;;;0.33;0.30;;;6.30;99.90;;;;;;5484685;26;20463;-80
2024/04/17 02:39:38;;;;;;;0.30;0.30;;;6.30;99.90;;;;;;5483896;26;20559;-80
2024/04/17 02:42:07;;;;;;;0.50;0.30;;;6.30;99.90;;;;;;5484552;26;20456;-80
2024/04/17 02:44:33;;;;;;;0.30;0.30;;;6.30;99.90;;;;;;5483656;26;20347;-80
2024/04/17 02:47:01;;;;;;;0.77;0.40;;;6.30;99.90;;;;;;5483841;26;21003;-80
2024/04/17 02:49:27;;;;;;;0.40;0.30;;;6.30;99.90;;;;;;5484200;26;20440;-80
2024/04/17 02:51:58;;;;;;;0.70;0.30;;;6.30;99.90;;;;;;5483964;26;20785;-80
2024/04/17 02:54:24;;;;;;;1.00;0.33;;;6.30;99.90;;;;;;5483708;26;20199;-80
2024/04/17 02:56:52;;;;;;;0.40;0.30;;;6.30;99.90;;;;;;5483190;26;20537;-80
2024/04/17 02:59:18;;;;;;;0.40;0.40;;;6.40;99.90;;;;;;5483674;26;20270;-80
2024/04/17 03:01:47;;;;;;;0.30;0.30;;;6.40;99.90;;;;;;5482462;26;20455;-80
2024/04/17 03:04:12;;;;;;;0.33;0.30;;;6.50;99.90;;;;;;5482539;26;20452;-80
2024/04/17 03:06:41;;;;;;;3.50;0.30;;;6.50;99.90;;;;;;5482818;26;20899;-80
2024/04/17 03:09:10;;;;;;;0.40;0.30;;;6.50;99.90;;;;;;5482731;26;20271;-80
2024/04/17 03:11:39;;;;;;;0.57;0.30;;;6.50;99.90;;;;;;5483367;26;20512;-80
2024/04/17 03:14:04;;;;;;;0.50;0.40;;;6.50;99.90;;;;;;5484808;26;20511;-81
2024/04/17 03:16:33;;;;;;;0.40;0.30;;;6.40;99.90;;;;;;5482408;26;20452;-80
2024/04/17 03:18:59;;;;;;;0.40;0.30;;;6.40;99.90;;;;;;5482367;26;20212;-80
2024/04/17 03:21:28;;;;;;;0.40;0.30;;;6.40;99.90;;;;;;5482530;26;20499;-80
2024/04/17 03:23:54;;;;;;;0.40;0.33;;;6.30;99.90;;;;;;5482074;26;20211;-80
2024/04/17 03:26:25;;;;;;;0.40;0.30;;;6.30;99.90;;;;;;5481532;26;20452;-80
2024/04/17 03:28:51;;;;;;;0.60;0.30;;;6.30;99.90;;;;;;5481938;26;20571;-80
2024/04/17 03:31:19;;;;;;;0.50;0.50;;;6.30;99.90;;;;;;5482377;26;20452;-80
2024/04/17 03:33:46;;;;;;;0.40;0.40;;;6.30;99.90;;;;;;5481723;26;20253;-80
2024/04/17 03:36:14;;;;;;;0.50;0.43;;;6.30;99.90;;;;;;5481606;26;20463;-80
2024/04/17 03:38:42;;;;;;;1.03;0.93;;;6.30;99.90;;;;;;5481288;26;20440;-80
2024/04/17 03:41:11;;;;;;;0.40;0.40;;;6.30;99.90;;;;;;5480914;26;20444;-80
2024/04/17 03:43:42;;;;;;;0.40;0.30;;;6.30;99.90;;;;;;5482096;26;20493;-80
2024/04/17 03:46:08;;;;;;;0.87;0.50;;;6.20;99.90;;;;;;5484162;26;20541;-80
2024/04/17 03:48:36;;;;;;;0.43;0.30;;;6.20;99.90;;;;;;5484270;26;20448;-80
2024/04/17 03:51:02;;;;;;;0.57;0.57;;;6.20;99.90;;;;;;5483666;26;20589;-80
2024/04/17 03:53:30;;;;;;;0.30;0.20;;;6.20;99.90;;;;;;5483959;26;20444;-80
2024/04/17 03:55:56;;;;;;;0.50;0.40;;;6.10;99.90;;;;;;5484268;26;20343;-80
2024/04/17 03:58:24;;;;;;;0.40;0.30;;;6.10;99.90;;;;;;5484248;26;20475;-80
2024/04/17 04:00:52;;;;;;;0.83;0.40;;;5.90;99.90;;;;;;5483764;26;20218;-80
2024/04/17 04:03:21;;;;;;;0.30;0.30;;;5.80;99.90;;;;;;5483793;26;20451;-80
2024/04/17 04:05:47;;;;;;;1.13;0.30;;;5.70;99.90;;;;;;5483633;26;20859;-80
2024/04/17 04:08:15;;;;;;;0.30;0.20;;;5.70;99.90;;;;;;5483593;25;20581;-80
2024/04/17 04:10:41;;;;;;;0.40;0.40;;;5.60;99.90;;;;;;5486429;26;20344;-80
2024/04/17 04:13:09;;;;;;;1.13;0.40;;;5.60;99.90;;;;;;5487806;26;20448;-80
2024/04/17 04:15:35;;;;;;;0.30;0.30;;;5.60;99.90;;;;;;5485859;26;20215;-80
2024/04/17 04:18:06;;;;;;;0.97;0.97;;;5.60;99.90;;;;;;5485773;26;20522;-80
2024/04/17 04:20:32;;;;;;;0.50;0.50;;;5.50;99.90;;;;;;5486286;26;20223;-80
2024/04/17 04:23:01;;;;;;;0.30;0.30;;;5.50;99.90;;;;;;5485287;26;20440;-80
2024/04/17 04:25:27;;;;;;;0.40;0.30;;;5.50;99.90;;;;;;5485695;26;20461;-80
2024/04/17 04:27:55;;;;;;;0.30;0.30;;;5.50;99.90;;;;;;5484860;26;20551;-80
2024/04/17 04:30:21;;;;;;;0.40;0.30;;;5.50;99.90;;;;;;5484910;26;20211;-80
2024/04/17 04:32:49;;;;;;;0.40;0.30;;;5.40;99.90;;;;;;5485022;26;20562;-80
2024/04/17 04:35:17;;;;;;;0.30;0.20;;;5.50;99.90;;;;;;5484953;26;20674;-80
2024/04/17 04:37:46;;;;;;;0.30;0.30;;;5.50;99.90;;;;;;5484561;26;20817;-80
2024/04/17 04:40:12;;;;;;;0.30;0.30;;;5.50;99.90;;;;;;5484831;26;20515;-80
2024/04/17 04:42:40;;;;;;;0.30;0.20;;;5.50;99.90;;;;;;5484739;26;20559;-80
2024/04/17 04:45:07;;;;;;;0.30;0.20;;;5.50;99.90;;;;;;5484326;26;20267;-80
2024/04/17 04:47:35;;;;;;;0.40;0.33;;;5.50;99.90;;;;;;5484207;26;20826;-80
2024/04/17 04:50:01;;;;;;;0.40;0.30;;;5.60;99.90;;;;;;5483962;26;20487;-80
2024/04/17 04:52:32;;;;;;;0.30;0.20;;;5.60;99.90;;;;;;5484078;26;20449;-80
2024/04/17 04:54:57;;;;;;;0.50;0.40;;;5.60;99.90;;;;;;5483101;26;20223;-80
2024/04/17 04:57:26;;;;;;;0.30;0.30;;;5.60;99.90;;;;;;5483763;26;21097;-80
2024/04/17 04:59:52;;;;;;;0.40;0.37;;;5.60;99.90;;;;;;5484043;26;20270;-80
2024/04/17 05:02:20;;;;;;;0.50;0.50;;;5.70;99.90;;;;;;5483550;26;20789;-80
2024/04/17 05:04:46;;;;;;;0.40;0.30;;;5.70;99.90;;;;;;5483369;26;20283;-80
2024/04/17 05:07:14;;;;;;;0.30;0.30;;;5.70;99.90;;;;;;5495242;26;20456;-80
2024/04/17 05:09:43;;;;;;;0.40;0.40;;;5.70;99.90;;;;;;5499482;26;20290;-80
2024/04/17 05:12:11;;;;;;;0.40;0.40;;;5.70;99.90;;;;;;5499839;26;20536;-80
2024/04/17 05:14:37;;;;;;;0.43;0.40;;;5.70;99.90;;;;;;5499604;26;20521;-80
2024/04/17 05:17:05;;;;;;;1.07;0.50;;;5.70;99.90;;;;;;5499616;26;20472;-80
2024/04/17 05:19:31;;;;;;;0.50;0.47;;;5.70;99.90;;;;;;5495721;26;20215;-80
2024/04/17 05:21:59;;;;;;;0.40;0.33;;;5.70;99.90;;;;;;5489205;26;20448;-80
2024/04/17 05:24:25;;;;;;;0.60;0.40;;;5.60;99.90;;;;;;5487057;26;20343;-80
2024/04/17 05:26:56;;;;;;;1.23;0.57;;;5.60;99.90;;;;;;5493942;26;20469;-80
2024/04/17 05:29:22;;;;;;;0.70;0.60;;;5.60;99.90;;;;;;5482864;26;20767;-80
2024/04/17 05:31:50;;;;;;;0.40;0.33;;;5.60;99.90;;;;;;5481691;26;20538;-80
2024/04/17 05:34:16;;;;;;;2.13;0.60;;;5.60;99.90;;;;;;5481467;26;20270;-80
2024/04/17 05:36:44;;;;;;;0.60;0.47;;;5.50;99.90;;;;;;5481590;26;20468;-80
2024/04/17 05:39:11;;;;;;;0.57;0.57;;;5.50;99.90;;;;;;5481096;26;20211;-80
2024/04/17 05:41:39;;;;;;;2.13;1.10;;;5.60;99.90;;;;;;5480908;26;20460;-80
2024/04/17 05:44:07;;;;;;;0.90;0.60;;;5.60;99.90;;;;;;5481196;26;20815;-80
2024/04/17 05:46:36;;;;;;;0.80;0.60;;;5.70;99.90;;;;;;5481331;26;20471;-80
2024/04/17 05:49:02;;;;;;;1.23;0.80;;;5.70;99.90;;;;;;5482135;26;20793;-81
2024/04/17 05:51:31;;;;;;;1.33;1.23;;;5.70;99.90;;;;;;5481613;26;20451;-81
2024/04/17 05:53:57;;;;;;;1.43;0.97;;;5.70;99.90;;;;;;5482822;26;20452;-81
2024/04/17 05:56:25;;;;;;;1.00;0.90;;;5.70;99.90;;;;;;5483767;26;20508;-80
2024/04/17 05:58:51;;;;;;;0.73;0.70;;;5.80;99.90;;;;;;5484741;26;20211;-80
2024/04/17 06:01:22;;;;;;;1.00;0.83;;;5.80;99.90;;;;;;5483852;26;20507;-80
2024/04/17 06:03:48;;;;;;;1.63;1.53;;;5.80;99.90;;;;;;5485352;26;20275;-81
2024/04/17 06:06:16;;;;;;;0.90;0.80;;;5.80;99.90;;;;;;5486989;26;20463;-80
2024/04/17 06:08:42;;;;;;;2.00;1.20;;;5.80;99.90;;;;;;5484913;26;20314;-80
2024/04/17 06:11:10;;;;;;;0.73;0.53;;;5.80;99.90;;;;;;5484966;26;20820;-80
2024/04/17 06:13:36;;;;;;;1.00;0.70;;;5.80;99.90;;;;;;5485204;26;20214;-80
2024/04/17 06:16:04;;;;;;;0.77;0.60;;;5.80;99.90;;;;;;5484641;26;20498;-80
2024/04/17 06:18:33;;;;;;;1.20;1.10;;;5.70;99.90;;;;;;5484576;26;20267;-80
2024/04/17 06:21:01;;;;;;;1.60;1.23;;;5.70;99.90;;;;;;5484356;26;20972;-80
2024/04/17 06:23:27;;;;;;;2.60;1.30;;;5.70;99.90;;;;;;5484096;26;20511;-80
2024/04/17 06:25:55;;;;;;;2.43;1.10;;;5.70;99.90;;;;;;5484212;26;20630;-81
2024/04/17 06:28:21;;;;;;;1.70;0.70;;;5.70;99.90;;;;;;5483619;26;20270;-81
2024/04/17 06:30:49;;;;;;;2.13;1.17;;;5.70;99.90;;;;;;5483723;26;20534;-80
2024/04/17 06:33:15;;;;;;;1.63;1.17;;;5.70;99.90;;;;;;5483850;26;20335;-81
2024/04/17 06:35:46;;;;;;;1.50;0.83;;;5.70;99.90;;;;;;5483694;26;20404;-81
2024/04/17 06:38:12;;;;;;;1.17;0.80;;;5.70;99.90;;;;;;5483407;26;20266;-81
2024/04/17 06:40:40;;;;;;;1.93;1.20;;;5.70;99.90;;;;;;5483246;26;20448;-81
2024/04/17 06:43:06;;;;;;;1.70;1.50;;;5.70;99.90;;;;;;5483129;26;20203;-80
2024/04/17 06:45:34;;;;;;;1.10;0.80;;;5.70;99.90;;;;;;5483189;26;20460;-80
2024/04/17 06:48:00;;;;;;;0.87;0.83;;;5.70;99.90;;;;;;5482879;26;20339;-80
2024/04/17 06:50:28;;;;;;;1.43;1.33;;;5.80;99.90;;;;;;5482860;26;20448;-80
2024/04/17 06:52:57;;;;;;;1.70;1.33;;;5.80;99.90;;;;;;5482526;26;20267;-80
2024/04/17 06:55:25;;;;;;;3.93;2.63;;;5.80;99.90;;;;;;5482765;26;20552;-80
2024/04/17 06:57:51;;;;;;;1.10;1.00;;;5.90;99.90;;;;;;5482454;26;20512;-80
2024/04/17 07:00:20;;;;;;;2.00;1.50;;;5.90;99.90;;;;;;5483202;26;20569;-80
2024/04/17 07:02:46;;;;;;;0.77;0.60;;;5.90;99.90;;;;;;5483242;26;20262;-80
2024/04/17 07:05:15;;;;;;;4.20;1.20;;;6.00;99.90;;;;;;5482943;26;20788;-80
2024/04/17 07:07:40;;;;;;;2.07;1.30;;;6.00;99.90;;;;;;5481779;26;20287;-80
2024/04/17 07:10:12;;;;;;;3.00;1.10;;;6.10;99.90;;;;;;5481829;26;20440;-80
2024/04/17 07:12:41;;;;;;;2.17;1.00;;;6.00;99.90;;;;;;5482119;26;20249;-80
2024/04/17 07:15:07;;;;;;;2.93;1.10;;;6.00;99.90;;;;;;5482398;26;20451;-80
2024/04/17 07:17:35;;;;;;;1.63;1.20;;;6.00;99.90;;;;;;5481821;26;20533;-80
2024/04/17 07:20:01;;;;;;;1.10;1.00;;;5.80;99.90;;;;;;5486995;26;21031;-80
2024/04/17 07:22:29;;;;;;;1.07;1.00;;;5.80;99.90;;;;;;5484577;26;20452;-80
2024/04/17 07:24:55;;;;;;;2.20;0.80;;;5.80;99.90;;;;;;5485092;26;20278;-80
2024/04/17 07:27:26;;;;;;;1.20;0.70;;;5.70;99.90;;;;;;5484698;26;20537;-80
2024/04/17 07:29:52;;;;;;;1.10;0.70;;;5.60;99.90;;;;;;5484748;26;20258;-81
2024/04/17 07:32:20;;;;;;;0.80;0.80;;;5.60;99.90;;;;;;5484269;26;20561;-80
2024/04/17 07:34:46;;;;;;;1.03;0.60;;;5.60;99.90;;;;;;5484732;26;20223;-80
2024/04/17 07:37:15;;;;;;;0.70;0.63;;;5.60;99.90;;;;;;5484611;26;20621;-80
2024/04/17 07:39:41;;;;;;;1.73;0.50;;;5.50;99.90;;;;;;5488155;26;20211;-81
2024/04/17 07:42:09;;;;;;;0.43;0.43;;;5.40;99.90;;;;;;5486192;26;20605;-80
2024/04/17 07:44:37;;;;;;;1.20;0.67;;;5.30;99.90;;;;;;5485165;26;20215;-79
2024/04/17 07:47:06;;;;;;;0.80;0.73;;;5.30;99.90;;;;;;5484448;26;20530;-80
2024/04/17 07:49:32;;;;;;;0.40;0.30;;;5.30;99.90;;;;;;5486225;26;20460;-81
2024/04/17 07:52:00;;;;;;;0.77;0.57;;;5.30;99.90;;;;;;5485015;26;20542;-81
2024/04/17 07:54:26;;;;;;;0.40;0.40;;;5.20;99.90;;;;;;5484495;26;20208;-81
2024/04/17 07:56:55;;;;;;;0.50;0.40;;;5.20;99.90;;;;;;5486923;26;20907;-81
2024/04/17 07:59:21;;;;;;;1.50;1.00;;;5.20;99.90;;;;;;5489494;26;20219;-81
2024/04/17 08:01:52;;;;;;;1.17;0.50;;;5.20;99.90;;;;;;5488659;26;20508;-80
2024/04/17 08:04:18;;;;;;;0.70;0.60;;;5.20;99.90;;;;;;5488634;26;20566;-80
2024/04/17 08:06:46;;;;;;;0.70;0.50;;;5.20;99.90;;;;;;5487293;26;20475;-80
2024/04/17 08:09:12;;;;;;;0.40;0.40;;;5.30;99.90;;;;;;5487610;26;20817;-80
2024/04/17 08:11:40;;;;;;;0.40;0.40;;;5.30;99.90;;;;;;5486742;26;20444;-80
2024/04/17 08:14:06;;;;;;;0.77;0.50;;;5.30;99.90;;;;;;5486617;26;20245;-80
2024/04/17 08:16:34;;;;;;;0.40;0.40;;;5.40;99.90;;;;;;5486970;26;20444;-81
2024/04/17 08:19:03;;;;;;;0.70;0.60;;;5.40;99.90;;;;;;5486102;26;20245;-81
2024/04/17 08:21:31;;;;;;;0.40;0.40;;;5.40;99.90;;;;;;5486142;26;20520;-81
2024/04/17 08:23:57;;;;;;;0.50;0.40;;;5.50;99.90;;;;;;5486750;26;20444;-81
2024/04/17 08:26:25;;;;;;;0.83;0.83;;;5.60;99.90;;;;;;5485809;26;20558;-80
2024/04/17 08:28:51;;;;;;;2.67;0.80;;;5.70;99.90;;;;;;5485239;26;20211;-81
2024/04/17 08:31:19;;;;;;;0.30;0.30;;;5.80;99.90;;;;;;5485629;26;20557;-81
2024/04/17 08:33:45;;;;;;;0.30;0.30;;;6.00;99.90;;;;;;5485999;26;20515;-81
2024/04/17 08:36:16;;;;;;;0.73;0.57;;;6.30;99.90;;;;;;5485400;26;20536;-81
2024/04/17 08:38:42;;;;;;;0.90;0.47;;;6.50;99.90;;;;;;5486027;26;20316;-81
2024/04/17 08:41:10;;;;;;;1.90;0.70;;;6.80;99.90;;;;;;5484802;26;20444;-81
2024/04/17 08:43:37;;;;;;;0.70;0.50;;;6.90;99.90;;;;;;5485689;26;20294;-82
2024/04/17 08:46:07;;;;;;;0.90;0.80;;;7.10;99.90;;;;;;5484834;26;20436;-81
2024/04/17 08:48:33;;;;;;;4.43;1.23;;;7.20;99.90;;;;;;5484863;26;20573;-80
2024/04/17 08:51:02;;;;;;;0.70;0.60;;;7.40;99.90;;;;;;5484476;26;20443;-80
2024/04/17 08:53:33;;;;;;;1.33;0.97;;;7.40;99.90;;;;;;5484310;26;20508;-81
2024/04/17 08:56:01;;;;;;;1.07;0.50;;;7.30;99.90;;;;;;5484358;26;20444;-81
2024/04/17 08:58:28;;;;;;;2.83;0.70;;;7.30;99.90;;;;;;5483259;26;20524;-81
2024/04/17 09:00:58;;;;;;;0.60;0.53;;;7.10;99.90;;;;;;5483531;26;20512;-81
2024/04/17 09:03:24;;;;;;;0.97;0.37;;;6.80;99.90;;;;;;5484800;26;20460;-81
2024/04/17 09:05:55;;;;;;;0.77;0.70;;;6.70;99.90;;;;;;5483768;26;20909;-81
2024/04/17 09:08:22;;;;;;;0.40;0.40;;;6.60;99.90;;;;;;5483366;26;20810;-81
2024/04/17 09:10:53;;;;;;;1.10;0.60;;;6.40;99.90;;;;;;5483135;26;20444;-81
2024/04/17 09:13:19;;;;;;;0.77;0.70;;;6.30;99.90;;;;;;5483288;26;20444;-81
2024/04/17 09:15:47;;;;;;;0.50;0.40;;;6.20;99.90;;;;;;5483140;26;20991;-80
2024/04/17 09:18:13;;;;;;;1.73;0.50;;;6.20;99.90;;;;;;5483185;26;20500;-80
2024/04/17 09:20:43;;;;;;;0.77;0.60;;;6.20;99.90;;;;;;5483368;26;20452;-80
2024/04/17 09:23:09;;;;;;;0.80;0.40;;;6.20;99.90;;;;;;5483257;26;20241;-80
2024/04/17 09:25:38;;;;;;;2.10;1.10;;;6.20;99.90;;;;;;5482717;26;20472;-80
2024/04/17 09:28:09;;;;;;;3.10;1.33;;;6.20;99.90;;;;;;5482695;26;20916;-80
2024/04/17 09:30:38;;;;;;;1.93;0.90;;;6.20;99.90;;;;;;5483119;26;21091;-80
2024/04/17 09:33:05;;;;;;;0.83;0.67;;;6.30;99.90;;;;;;5482645;26;20440;-80
2024/04/17 09:35:33;;;;;;;0.70;0.70;;;6.40;99.90;;;;;;5483134;26;20494;-80
2024/04/17 09:38:02;;;;;;;2.50;1.30;;;6.40;99.90;;;;;;5483211;26;20457;-80
2024/04/17 09:40:30;;;;;;;1.87;0.93;;;6.50;99.90;;;;;;5481763;26;20448;-80
2024/04/17 09:42:59;;;;;;;0.80;0.80;;;6.50;99.90;;;;;;5482937;26;20564;-80
2024/04/17 09:45:31;;;;;;;1.73;1.63;;;6.60;99.90;;;;;;5482789;26;20492;-80
2024/04/17 09:48:00;;;;;;;3.13;1.20;;;6.70;99.90;;;;;;5482908;26;20539;-80
2024/04/17 09:50:27;;;;;;;1.67;1.20;;;6.70;99.90;;;;;;5482106;26;20537;-80
2024/04/17 09:53:01;;;;;;;4.53;1.10;;;6.70;99.90;;;;;;5482257;26;20464;-80
2024/04/17 09:55:29;;;;;;;2.43;1.40;;;6.70;99.90;;;;;;5486437;26;20448;-81
2024/04/17 09:57:59;;;;;;;2.90;1.90;;;6.70;99.90;;;;;;5484550;26;20476;-80
2024/04/17 10:00:30;;;;;;;1.33;1.20;;;6.80;99.90;;;;;;5484614;26;20511;-81
2024/04/17 10:02:59;;;;;;;6.23;1.50;;;6.80;99.90;;;;;;5485058;26;20492;-80
2024/04/17 10:05:27;;;;;;;1.97;1.83;;;6.90;99.90;;;;;;5483455;26;20452;-80
2024/04/17 10:07:56;;;;;;;1.87;0.90;;;6.90;99.90;;;;;;5483718;26;20471;-80
2024/04/17 10:10:23;;;;;;;2.37;1.30;;;6.90;99.90;;;;;;5484514;26;20589;-80
2024/04/17 10:12:53;;;;;;;1.53;1.07;;;6.90;99.90;;;;;;5484535;26;20496;-81
2024/04/17 10:15:19;;;;;;;1.50;1.40;;;6.90;99.90;;;;;;5484110;26;20452;-81
2024/04/17 10:17:50;;;;;;;15.23;2.00;;;6.80;99.90;;;;;;5484747;26;20802;-80
2024/04/17 10:20:26;;;;;;;3.60;2.10;;;6.70;99.90;;;;;;5484662;26;20191;-80
2024/04/17 10:23:04;;;;;;;4.90;2.00;;;6.70;99.90;;;;;;5483774;26;20504;-80
2024/04/17 10:25:31;;;;;;;4.30;1.80;;;6.70;99.90;;;;;;5484092;26;20447;-80
2024/04/17 10:28:04;;;;;;;11.80;1.17;;;6.70;99.90;;;;;;5483867;26;20467;-80
2024/04/17 10:30:35;;;;;;;1.90;1.80;;;6.70;99.90;;;;;;5484379;26;20448;-80
2024/04/17 10:33:06;;;;;;;3.13;1.83;;;6.80;99.90;;;;;;5483773;26;20444;-80
2024/04/17 10:35:32;;;;;;;3.33;2.00;;;7.00;99.90;;;;;;5483916;26;20456;-80
2024/04/17 10:38:07;;;;;;;6.00;2.30;;;7.00;99.90;;;;;;5484052;26;20460;-81
2024/04/17 10:40:33;;;;;;;1.80;1.33;;;7.20;99.90;;;;;;5483277;26;20252;-80
2024/04/17 10:43:01;;;;;;;2.53;2.10;;;7.40;99.90;;;;;;5483913;26;20448;-80
2024/04/17 10:45:28;;;;;;;3.57;1.50;;;7.80;99.90;;;;;;5484868;26;20266;-80
2024/04/17 10:48:01;;;;;;;2.47;2.10;;;8.30;99.90;;;;;;5482981;26;20468;-80
2024/04/17 10:50:30;;;;;;;2.33;1.77;;;8.60;99.90;;;;;;5483992;26;20448;-80
2024/04/17 10:53:01;;;;;;;1.93;1.73;;;8.60;99.90;;;;;;5484135;26;20852;-80
2024/04/17 10:55:28;;;;;;;2.07;1.47;;;8.50;99.90;;;;;;5486730;26;20515;-80
2024/04/17 10:57:59;;;;;;;5.80;2.70;;;8.20;99.90;;;;;;5486099;26;20523;-80
2024/04/17 11:00:24;;;;;;;2.33;1.33;;;7.90;99.90;;;;;;5487354;26;20518;-80
2024/04/17 11:02:55;;;;;;;3.77;2.60;;;7.80;99.90;;;;;;5486651;26;20569;-80
2024/04/17 11:05:24;;;;;;;2.60;1.63;;;7.70;99.90;;;;;;5486987;26;20691;-80
2024/04/17 11:07:55;;;;;;;3.73;2.20;;;7.90;99.90;;;;;;5484845;26;20468;-80
2024/04/17 11:10:21;;;;;;;9.00;1.57;;;8.20;99.90;;;;;;5485897;26;20515;-80
2024/04/17 11:12:50;;;;;;;5.10;2.30;;;8.60;99.90;;;;;;5485577;26;20444;-80
2024/04/17 11:15:16;;;;;;;2.47;1.80;;;8.80;99.90;;;;;;5485604;26;20574;-80
2024/04/17 11:17:44;;;;;;;2.13;2.00;;;8.90;99.90;;;;;;5485448;26;21023;-80
2024/04/17 11:20:11;;;;;;;4.17;2.40;;;8.80;99.90;;;;;;5483593;26;20444;-81
2024/04/17 11:22:40;;;;;;;4.53;1.87;;;8.60;99.90;;;;;;5483716;26;20811;-80
2024/04/17 11:25:13;;;;;;;3.17;1.83;;;8.60;99.90;;;;;;5483431;26;20452;-79
2024/04/17 11:27:42;;;;;;;6.73;2.23;;;8.70;99.90;;;;;;5483146;26;20471;-79
2024/04/17 11:30:15;;;;;;;2.97;2.57;;;8.80;99.90;;;;;;5483388;26;20451;-79
2024/04/17 11:32:44;;;;;;;4.40;2.33;;;8.80;99.90;;;;;;5483670;26;20799;-79
2024/04/17 11:35:14;;;;;;;2.83;2.03;;;8.80;99.90;;;;;;5483196;26;20452;-79
2024/04/17 11:37:43;;;;;;;1.87;1.70;;;8.80;99.90;;;;;;5483005;26;20459;-79
2024/04/17 11:40:11;;;;;;;2.00;1.77;;;8.80;99.90;;;;;;5483233;26;20554;-80
2024/04/17 11:42:40;;;;;;;3.53;1.70;;;8.80;99.90;;;;;;5483083;26;20897;-79
2024/04/17 11:45:08;;;;;;;2.53;2.40;;;8.70;99.90;;;;;;5498584;26;20499;-79
2024/04/17 11:47:36;;;;;;;2.40;1.80;;;8.60;99.90;;;;;;5503419;26;20455;-79
2024/04/17 11:50:02;;;;;;;2.00;1.50;;;8.60;99.90;;;;;;5503811;26;20452;-79
2024/04/17 11:52:32;;;;;;;2.43;1.53;;;8.60;99.90;;;;;;5504722;26;20573;-79
2024/04/17 11:54:58;;;;;;;1.83;1.40;;;8.70;99.90;;;;;;5504341;26;20528;-79
2024/04/17 11:57:30;;;;;;;0.93;0.90;;;8.90;99.90;;;;;;5489149;26;20878;-80
2024/04/17 11:59:56;;;;;;;2.47;1.27;;;9.00;99.90;;;;;;5488765;26;20281;-80
2024/04/17 12:02:25;;;;;;;2.93;1.83;;;9.20;99.90;;;;;;5490162;26;20456;-80
2024/04/17 12:04:51;;;;;;;2.00;1.63;;;9.30;99.90;;;;;;5494758;26;20803;-79
2024/04/17 12:07:20;;;;;;;1.87;1.27;;;9.40;99.90;;;;;;5491027;26;20464;-80
2024/04/17 12:09:48;;;;;;;2.90;2.13;;;9.50;99.90;;;;;;5485784;26;20440;-80
2024/04/17 12:12:17;;;;;;;4.43;1.60;;;9.70;99.90;;;;;;5486323;26;20536;-80
2024/04/17 12:14:45;;;;;;;4.13;1.60;;;9.80;99.90;;;;;;5484921;26;20508;-80
2024/04/17 12:17:14;;;;;;;1.50;1.40;;;10.00;99.90;;;;;;5487687;26;20480;-80
2024/04/17 12:19:40;;;;;;;4.33;1.83;;;10.10;99.90;;;;;;5484832;26;20443;-80
2024/04/17 12:22:08;;;;;;;1.70;1.60;;;10.00;99.90;;;;;;5490249;26;20519;-80
2024/04/17 12:27:17;;;;;;;2.27;1.70;;;9.50;99.90;;;;;;5485462;26;20519;-80
2024/04/17 12:29:48;;;;;;;2.57;1.40;;;9.20;99.90;;;;;;5483006;26;20515;-80
2024/04/17 12:32:17;;;;;;;1.37;1.27;;;9.00;99.90;;;;;;5483076;26;20452;-80
2024/04/17 12:34:45;;;;;;;2.23;1.50;;;8.70;99.90;;;;;;5482772;26;20496;-80
2024/04/17 12:37:15;;;;;;;1.50;1.17;;;8.40;99.90;;;;;;5482727;26;20476;-80
2024/04/17 12:39:44;;;;;;;2.83;0.80;;;8.10;99.90;;;;;;5482748;26;20555;-80
2024/04/17 12:42:14;;;;;;;1.20;0.90;;;7.70;99.90;;;;;;5482319;26;20522;-80
2024/04/17 12:44:43;;;;;;;1.00;0.77;;;7.40;99.90;;;;;;5482888;26;20498;-80
2024/04/17 12:47:14;;;;;;;0.83;0.83;;;7.00;99.90;;;;;;5481930;26;20503;-80
2024/04/17 12:49:42;;;;;;;0.90;0.80;;;6.60;99.90;;;;;;5483814;26;20531;-80
2024/04/17 12:52:08;;;;;;;0.40;0.40;;;6.40;99.90;;;;;;5482524;26;20452;-80
2024/04/17 12:54:37;;;;;;;0.93;0.60;;;6.20;99.90;;;;;;5482660;26;20866;-80
2024/04/17 12:57:03;;;;;;;1.10;0.73;;;6.00;99.90;;;;;;5481961;26;20318;-79
2024/04/17 12:59:31;;;;;;;2.13;1.67;;;6.00;99.90;;;;;;5483188;26;20447;-79
2024/04/17 13:01:57;;;;;;;3.30;0.60;;;6.00;99.90;;;;;;5483276;26;20498;-79
2024/04/17 13:04:28;;;;;;;2.13;1.00;;;6.00;99.90;;;;;;5483632;26;20448;-79